Time;durP1;ratioP1;P1;durP2;ratioP2;P2;SDS_P1;SDS_P2;PMS_P1;PMS_P2;Temp;Humidity;BMP_temperature;BMP_pressure;BME280_temperature;BME280_humidity;BME280_pressure;Samples;Min_cycle;Max_cycle;Signal;HPM_P1;HPM_P2
2022/01/09 00:00:04;;;;;;;1.42;0.60;;;;;;;5.04;100.00;98248.28;20953435;28;20045;-73
2022/01/09 00:10:07;;;;;;;1.20;0.43;;;;;;;5.09;100.00;98225.66;20961293;28;20170;-73
2022/01/09 00:20:10;;;;;;;3.70;0.70;;;;;;;5.12;100.00;98216.00;20951371;28;20118;-73
2022/01/09 00:30:14;;;;;;;8.57;2.13;;;;;;;5.23;100.00;98176.81;20912403;28;20056;-73
2022/01/09 00:40:16;;;;;;;6.32;1.98;;;;;;;5.20;100.00;98176.03;20937384;28;20045;-73
2022/01/09 00:50:18;;;;;;;6.47;2.33;;;;;;;5.36;100.00;98136.59;20950190;28;20071;-73
2022/01/09 01:00:20;;;;;;;8.13;2.33;;;;;;;5.39;100.00;98123.53;20952447;28;20049;-71
2022/01/09 01:10:21;;;;;;;7.10;2.10;;;;;;;5.45;100.00;98124.25;20951332;28;20111;-70
2022/01/09 01:20:23;;;;;;;9.13;2.47;;;;;;;5.50;100.00;98127.53;20949338;28;20044;-70
2022/01/09 01:30:25;;;;;;;15.18;4.03;;;;;;;5.49;100.00;98138.81;20947027;28;20071;-70
2022/01/09 01:40:26;;;;;;;6.18;1.98;;;;;;;5.50;100.00;98143.97;20945395;28;20411;-70
2022/01/09 01:50:34;;;;;;;4.80;1.98;;;;;;;5.54;100.00;98166.31;20947019;28;20048;-70
2022/01/09 02:00:36;;;;;;;2.78;0.50;;;;;;;5.56;100.00;98163.72;20944875;28;20045;-70
2022/01/09 02:10:44;;;;;;;3.78;0.70;;;;;;;5.51;100.00;98176.81;20943519;28;20470;-70
2022/01/09 02:20:47;;;;;;;2.50;0.52;;;;;;;5.48;100.00;98199.41;20948622;28;20044;-71
2022/01/09 02:30:50;;;;;;;3.78;0.60;;;;;;;5.50;100.00;98202.81;20939382;28;20053;-71
2022/01/09 02:40:54;;;;;;;3.72;0.70;;;;;;;5.54;100.00;98222.59;20946442;28;20044;-70
2022/01/09 02:51:08;;;;;;;3.13;0.40;;;;;;;5.58;100.00;98235.44;20939886;28;20057;-70
2022/01/09 03:01:11;;;;;;;5.32;0.40;;;;;;;5.46;100.00;98273.88;20940260;28;20037;-70
2022/01/09 03:11:12;;;;;;;0.75;0.40;;;;;;;5.44;100.00;98289.50;20941499;28;20053;-71
2022/01/09 03:21:14;;;;;;;1.10;0.38;;;;;;;5.45;100.00;98321.47;20939284;28;20099;-71
2022/01/09 03:31:15;;;;;;;0.70;0.35;;;;;;;5.39;100.00;98346.72;20942287;28;20497;-71
2022/01/09 03:41:17;;;;;;;1.02;0.28;;;;;;;5.36;100.00;98375.31;20938921;28;20049;-71
2022/01/09 03:51:18;;;;;;;1.20;0.22;;;;;;;5.35;100.00;98396.13;20939609;28;20106;-71
2022/01/09 04:01:20;;;;;;;0.50;0.15;;;;;;;5.28;100.00;98425.75;20896379;28;20047;-71
2022/01/09 04:11:26;;;;;;;0.88;0.20;;;;;;;5.26;100.00;98466.44;20921160;28;20091;-71
2022/01/09 04:21:28;;;;;;;2.35;0.35;;;;;;;5.09;100.00;98516.16;20935215;28;20094;-70
2022/01/09 04:31:29;;;;;;;0.20;0.13;;;;;;;4.85;100.00;98543.50;20952020;28;20118;-71
2022/01/09 04:41:31;;;;;;;1.40;0.40;;;;;;;4.68;100.00;98572.38;20950091;28;20094;-71
2022/01/09 04:51:32;;;;;;;1.38;0.25;;;;;;;4.54;100.00;98613.28;20951110;28;20106;-70
2022/01/09 05:01:34;;;;;;;0.15;0.00;;;;;;;4.45;100.00;98645.41;20949817;28;20490;-70
2022/01/09 05:11:36;;;;;;;0.57;0.10;;;;;;;4.40;100.00;98665.38;20947060;28;20068;-70
2022/01/09 05:21:38;;;;;;;0.17;0.10;;;;;;;4.42;100.00;98686.94;20906899;28;20083;-70
2022/01/09 05:31:39;;;;;;;1.92;0.50;;;;;;;4.32;100.00;98719.94;20927840;28;20056;-70
2022/01/09 05:41:42;;;;;;;2.75;0.30;;;;;;;4.37;100.00;98741.44;20946462;28;20489;-70
2022/01/09 05:51:44;;;;;;;1.33;0.30;;;;;;;4.29;100.00;98753.66;20948224;28;20056;-70
2022/01/09 06:01:46;;;;;;;1.50;0.30;;;;;;;4.24;100.00;98778.81;20947353;28;20088;-71
2022/01/09 06:11:47;;;;;;;1.65;0.60;;;;;;;4.29;100.00;98807.22;20943784;28;20049;-71
2022/01/09 06:21:49;;;;;;;2.92;0.40;;;;;;;4.34;100.00;98827.00;20943296;28;20079;-71
2022/01/09 06:31:51;;;;;;;2.05;0.50;;;;;;;4.31;100.00;98858.16;20942835;28;20555;-71
2022/01/09 06:41:52;;;;;;;5.43;1.05;;;;;;;4.28;100.00;98873.72;20939858;28;20041;-70
2022/01/09 06:51:54;;;;;;;4.78;0.88;;;;;;;4.33;100.00;98905.59;20943138;28;20437;-71
2022/01/09 07:01:55;;;;;;;6.45;1.33;;;;;;;4.40;100.00;98939.19;20939475;28;20052;-70
2022/01/09 07:11:57;;;;;;;4.50;1.50;;;;;;;4.31;100.00;98956.59;20940705;28;20080;-70
2022/01/09 07:21:58;;;;;;;6.85;1.40;;;;;;;4.31;100.00;98979.94;20936944;28;20041;-70
2022/01/09 07:32:01;;;;;;;6.13;1.23;;;;;;;4.27;100.00;99003.31;20940235;28;20048;-70
2022/01/09 07:42:02;;;;;;;10.63;1.50;;;;;;;4.21;99.76;99017.16;20939418;28;20494;-69
2022/01/09 07:52:04;;;;;;;8.70;1.50;;;;;;;4.10;98.45;99050.13;20936835;28;20114;-71
2022/01/09 08:02:06;;;;;;;5.45;1.33;;;;;;;4.10;97.31;99055.28;20956936;28;20154;-71
2022/01/09 08:12:10;;;;;;;7.75;1.55;;;;;;;3.89;99.61;99052.97;20956606;28;20490;-71
2022/01/09 08:22:12;;;;;;;11.20;1.60;;;;;;;3.91;100.00;99072.75;20957808;28;20044;-70
2022/01/09 08:32:13;;;;;;;9.30;1.55;;;;;;;4.07;99.29;99083.81;20941925;28;20044;-70
2022/01/09 08:42:15;;;;;;;8.52;1.50;;;;;;;4.21;95.15;99079.34;20939034;28;20058;-70
2022/01/09 08:52:16;;;;;;;12.80;1.98;;;;;;;4.24;96.09;99094.84;20937816;28;20049;-70
2022/01/09 09:02:18;;;;;;;7.55;1.60;;;;;;;4.59;93.12;99101.34;20950666;28;20037;-71
2022/01/09 09:12:20;;;;;;;11.90;1.80;;;;;;;4.87;93.13;99126.06;20939107;28;20061;-70
2022/01/09 09:22:22;;;;;;;15.88;2.65;;;;;;;4.73;92.70;99135.75;20943496;28;20049;-71
2022/01/09 09:32:24;;;;;;;9.55;2.15;;;;;;;4.89;94.88;99162.38;20937238;28;20138;-72
2022/01/09 09:42:26;;;;;;;7.80;2.15;;;;;;;5.09;95.26;99169.88;20949278;28;20048;-69
2022/01/09 09:52:27;;;;;;;19.90;3.08;;;;;;;5.19;98.02;99181.84;20941490;28;20109;-69
2022/01/09 10:02:41;;;;;;;10.18;2.42;;;;;;;5.06;96.43;99195.84;20938275;28;20494;-71
2022/01/09 10:12:46;;;;;;;12.02;2.50;;;;;;;5.05;94.27;99194.16;20938857;28;20110;-71
2022/01/09 10:22:55;;;;;;;9.40;2.10;;;;;;;5.13;95.35;99198.38;20936757;28;20062;-73
2022/01/09 10:33:05;;;;;;;14.13;3.20;;;;;;;5.13;94.89;99213.94;20934414;28;20130;-70
2022/01/09 10:43:12;;;;;;;9.27;1.75;;;;;;;5.14;96.18;99223.41;20933711;28;20049;-71
2022/01/09 10:53:20;;;;;;;7.45;2.20;;;;;;;5.12;98.42;99230.34;20933055;28;20053;-71
2022/01/09 11:03:21;;;;;;;5.78;1.63;;;;;;;5.22;97.11;99225.94;20932235;28;20049;-70
2022/01/09 11:13:25;;;;;;;5.57;1.63;;;;;;;5.46;94.86;99244.63;20937654;28;20126;-71
2022/01/09 11:23:41;;;;;;;6.57;1.70;;;;;;;5.94;92.74;99237.91;20931242;28;20459;-71
2022/01/09 11:34:10;;;;;;;6.75;1.30;;;;;;;5.48;92.01;99261.91;20934274;28;20045;-70
2022/01/09 11:44:14;;;;;;;6.82;1.10;;;;;;;5.74;91.82;99251.16;20947129;28;20472;-70
2022/01/09 11:54:17;;;;;;;9.23;1.30;;;;;;;5.43;89.77;99247.28;20947550;28;20052;-70
2022/01/09 12:04:30;;;;;;;7.20;1.65;;;;;;;5.63;93.05;99260.84;20945895;28;20456;-69
2022/01/09 12:14:45;;;;;;;9.35;2.58;;;;;;;5.79;93.62;99251.94;20947434;28;20059;-72
2022/01/09 12:24:47;;;;;;;7.00;1.75;;;;;;;5.99;86.14;99250.81;20946906;28;20106;-71
2022/01/09 12:35:16;;;;;;;8.68;1.70;;;;;;;5.86;85.78;99237.13;20943142;28;20048;-69
2022/01/09 12:45:22;;;;;;;9.75;1.55;;;;;;;5.85;85.41;99230.22;20942644;28;20052;-72
2022/01/09 12:55:23;;;;;;;7.88;1.70;;;;;;;5.63;83.59;99224.50;20942792;28;20053;-71
2022/01/09 13:05:39;;;;;;;7.47;1.65;;;;;;;5.90;81.36;99226.69;20944779;28;20501;-69
2022/01/09 13:15:40;;;;;;;8.10;2.40;;;;;;;5.96;82.09;99240.47;20944475;28;20097;-69
2022/01/09 13:25:46;;;;;;;7.28;1.48;;;;;;;6.33;79.04;99236.41;20943312;28;20049;-70
2022/01/09 13:35:48;;;;;;;14.65;2.08;;;;;;;6.56;77.26;99250.72;20939363;28;20072;-69
2022/01/09 13:45:50;;;;;;;8.95;1.50;;;;;;;6.18;80.02;99249.66;20938390;28;20045;-69
2022/01/09 13:55:51;;;;;;;5.85;1.40;;;;;;;6.10;81.04;99259.31;20938560;28;20040;-70
2022/01/09 14:05:53;;;;;;;6.93;1.60;;;;;;;5.94;82.43;99265.59;20935279;28;20094;-69
2022/01/09 14:16:34;;;;;;;3.47;0.80;;;;;;;5.67;84.04;99283.28;20939024;28;20075;-69
2022/01/09 14:26:37;;;;;;;9.63;1.27;;;;;;;5.51;80.53;99284.34;20888648;28;20056;-70
2022/01/09 14:36:41;;;;;;;9.23;1.85;;;;;;;5.48;81.92;99300.84;20935691;28;20459;-70
2022/01/09 14:46:43;;;;;;;7.33;2.03;;;;;;;5.53;80.74;99312.03;20934796;28;20049;-70
2022/01/09 14:56:44;;;;;;;8.50;1.35;;;;;;;5.50;82.06;99326.78;20939912;28;20048;-69
2022/01/09 15:06:46;;;;;;;9.23;1.55;;;;;;;5.45;81.71;99344.16;20930384;28;20107;-69
2022/01/09 15:16:47;;;;;;;7.75;1.35;;;;;;;5.01;83.83;99343.78;20935467;28;20114;-69
2022/01/09 15:26:50;;;;;;;12.02;2.92;;;;;;;4.61;87.43;99364.03;20933752;28;20056;-68
2022/01/09 15:36:52;;;;;;;10.23;2.78;;;;;;;4.27;91.65;99374.66;20932451;28;20049;-69
2022/01/09 15:46:54;;;;;;;12.25;3.53;;;;;;;4.08;95.37;99381.69;20928969;28;20396;-69
2022/01/09 15:56:56;;;;;;;13.85;5.10;;;;;;;3.82;96.58;99397.34;20932642;28;20064;-68
2022/01/09 16:06:57;;;;;;;16.70;6.05;;;;;;;3.48;98.55;99393.19;20928586;28;20079;-70
2022/01/09 16:16:59;;;;;;;15.77;4.85;;;;;;;3.29;99.45;99423.41;20934871;28;20076;-69
2022/01/09 16:27:02;;;;;;;12.48;5.00;;;;;;;3.33;100.00;99423.41;20969704;28;20044;-69
2022/01/09 16:37:03;;;;;;;10.65;4.95;;;;;;;3.44;100.00;99431.13;20977834;28;20040;-69
2022/01/09 16:47:05;;;;;;;11.10;5.88;;;;;;;3.40;99.57;99428.56;20976019;28;20036;-69
2022/01/09 16:57:06;;;;;;;15.48;7.53;;;;;;;3.15;100.00;99438.09;20941554;28;20053;-69
2022/01/09 17:07:08;;;;;;;12.68;5.18;;;;;;;2.94;100.00;99454.50;20943047;28;20052;-71
2022/01/09 17:17:09;;;;;;;15.18;6.07;;;;;;;2.75;100.00;99482.91;20942359;28;20045;-70
2022/01/09 17:27:17;;;;;;;19.25;8.30;;;;;;;2.64;100.00;99492.38;20939273;28;20052;-70
2022/01/09 17:37:20;;;;;;;14.82;5.75;;;;;;;2.74;100.00;99507.03;20919793;28;20048;-69
2022/01/09 17:47:22;;;;;;;14.45;7.13;;;;;;;2.62;100.00;99519.94;20940036;28;20059;-70
2022/01/09 17:57:23;;;;;;;14.38;6.57;;;;;;;2.70;100.00;99538.91;20937581;28;20502;-70
2022/01/09 18:07:25;;;;;;;17.80;8.18;;;;;;;2.78;100.00;99546.69;20937447;28;20048;-70
2022/01/09 18:17:27;;;;;;;18.88;7.75;;;;;;;2.85;100.00;99557.91;20939394;28;20055;-70
2022/01/09 18:27:29;;;;;;;18.40;10.05;;;;;;;2.93;100.00;99564.81;20933060;28;20482;-71
2022/01/09 18:37:31;;;;;;;19.75;9.60;;;;;;;3.00;100.00;99569.13;20906990;28;20040;-70
2022/01/09 18:47:35;;;;;;;13.93;7.22;;;;;;;3.03;100.00;99583.78;20934544;28;20448;-70
2022/01/09 18:57:37;;;;;;;15.17;9.33;;;;;;;3.03;100.00;99594.13;20933119;28;20053;-69
2022/01/09 19:07:39;;;;;;;11.27;6.18;;;;;;;3.01;100.00;99601.88;20933016;28;20056;-70
2022/01/09 19:17:46;;;;;;;20.05;9.60;;;;;;;2.93;100.00;99610.50;20933196;28;20052;-70
2022/01/09 19:27:47;;;;;;;18.05;6.90;;;;;;;2.98;100.00;99616.53;20931208;28;20052;-71
2022/01/09 19:37:49;;;;;;;11.13;6.20;;;;;;;2.98;100.00;99617.41;20930366;28;20122;-70
2022/01/09 19:47:50;;;;;;;13.63;6.07;;;;;;;2.92;100.00;99613.91;20928750;28;20045;-69
2022/01/09 19:57:52;;;;;;;16.45;6.65;;;;;;;2.73;100.00;99642.31;20940688;28;20049;-69
2022/01/09 20:07:55;;;;;;;13.82;5.35;;;;;;;2.61;100.00;99638.81;20944443;28;20103;-69
2022/01/09 20:17:57;;;;;;;15.45;5.57;;;;;;;2.40;100.00;99648.22;20947503;28;20307;-70
2022/01/09 20:27:59;;;;;;;30.23;11.98;;;;;;;2.27;100.00;99661.91;20943375;28;20057;-70
2022/01/09 20:38:00;;;;;;;27.33;11.45;;;;;;;2.38;100.00;99667.13;20945079;28;20047;-72
2022/01/09 20:48:06;;;;;;;16.98;8.18;;;;;;;2.49;100.00;99683.53;20943683;28;20059;-70
2022/01/09 20:58:07;;;;;;;12.77;6.57;;;;;;;2.55;100.00;99683.59;20939843;28;20113;-71
2022/01/09 21:08:10;;;;;;;13.95;5.35;;;;;;;2.64;100.00;99687.94;20938630;28;20052;-70
2022/01/09 21:18:11;;;;;;;17.10;6.82;;;;;;;2.59;100.00;99698.25;20943127;28;20453;-71
2022/01/09 21:28:14;;;;;;;13.38;5.28;;;;;;;2.57;100.00;99703.41;20950039;28;20524;-70
2022/01/09 21:38:15;;;;;;;11.98;5.30;;;;;;;2.50;100.00;99711.97;20919698;28;20060;-69
2022/01/09 21:48:17;;;;;;;15.57;7.25;;;;;;;2.43;100.00;99737.75;20939477;28;20078;-70
2022/01/09 21:58:19;;;;;;;14.32;6.10;;;;;;;2.29;100.00;99754.03;20936528;28;20061;-69
2022/01/09 22:08:21;;;;;;;20.38;8.45;;;;;;;2.13;100.00;99765.09;20935356;28;20045;-69
2022/01/09 22:18:23;;;;;;;17.00;6.65;;;;;;;1.85;100.00;99776.91;20937396;28;20045;-70
2022/01/09 22:28:25;;;;;;;16.80;7.15;;;;;;;1.65;100.00;99771.56;20935922;28;20078;-69
2022/01/09 22:38:27;;;;;;;15.43;6.15;;;;;;;1.51;100.00;99796.34;20932760;28;20118;-68
2022/01/09 22:48:28;;;;;;;19.20;9.40;;;;;;;1.42;100.00;99807.41;20933345;28;20053;-69
2022/01/09 22:58:30;;;;;;;25.23;9.60;;;;;;;1.49;100.00;99835.03;20935594;28;20512;-69
2022/01/09 23:08:32;;;;;;;16.58;7.70;;;;;;;1.52;100.00;99835.03;20939429;28;20054;-69
2022/01/09 23:18:35;;;;;;;18.23;9.30;;;;;;;1.45;100.00;99853.03;20938580;28;20182;-69
2022/01/09 23:28:38;;;;;;;35.57;14.53;;;;;;;1.42;100.00;99863.31;20936156;28;20052;-69
2022/01/09 23:38:39;;;;;;;24.00;11.88;;;;;;;1.53;100.00;99877.19;20938628;28;20044;-69
2022/01/09 23:58:57;;;;;;;18.83;9.85;;;;;;;1.74;100.00;99907.56;20937332;28;20491;-69
